Tiempo atmosférico en la estación meteorológica de Ávila, Ávila (1130 m.)



Fecha
DESCASC
Temp. máxima en grados centígrados (hora)
DESCASC
Temp. mínima en grados centígrados (hora)
DESCASC
Temp. media en grados centígrados
DESCASC
Racha de viento máxima en m/sg (hora)
DESCASC
Velocidad máxima media en intervalos de 10 minutos(hora)
DESCASC
Precipitaciones diarias en mm
DESCASC
Precipitaciones de 00:00 a 06:00 en mm
DESCASC
Precipitaciones de 06:00 a 12:00 en mm
DESCASC
Precipitaciones de 12:00 a 18:00 en mm
DESCASC
Precipitaciones de 18:00 a 24:00 en mm
DESCASC
21-02-2019 13.4 (16:50) -0.5 (04:50) 6.4 9.17 (13:10) 5.56 (15:40) 0 0 0 0 0
20-02-2019 13 (15:10) 0.3 (06:40) 6.7 5.83 (17:20) 3.61 (16:50) 0 0 0 0 0
19-02-2019 10.1 (12:40) 1.5 (00:50) 5.8 6.39 (16:20) 3.89 (16:20) 0.2 0 0 0.2 0
18-02-2019 10.3 (16:50) 2.6 (23:59) 6.5 10.28 (05:20) 5.56 (05:20) 0 0 0 0 0
17-02-2019 11.5 (15:20) 2.9 (00:00) 7.2 12.22 (00:10) 7.78 (04:00) 0 0 0 0 0
16-02-2019 13.6 (15:40) 4.3 (00:00) 9 13.61 (23:50) 7.78 (23:40) 0 0 0 0 0
15-02-2019 17.2 (14:40) -0.9 (-00:0) 8.2 6.39 (02:10) 3.89 (15:40) 0 0 0 0 0
14-02-2019 11.7 (16:50) 3 (00:00) 7.3 11.11 (11:50) 7.22 (13:40) 0 0 0 0 0
13-02-2019 14.4 (14:50) -1.8 (-00:0) 6.3 7.22 (17:50) 4.17 (17:40) 0 0 0 0 0
12-02-2019 11.5 (16:20) -2 (-00:0) 4.8 7.78 (14:00) 5.28 (14:00) 0 0 0 0 0
11-02-2019 8.9 (15:40) 0.8 (00:00) 4.8 8.61 (16:30) 5.28 (01:00) 0 0 0 0 0
10-02-2019 13.9 (14:00) 2.4 (00:00) 8.1 12.78 (15:30) 6.67 (15:30) 0 0 0 0 0
09-02-2019 12.7 (15:40) -0.5 (-00:0) 6.1 6.94 (15:50) 3.89 (15:20) 0 0 0 0 0
08-02-2019 14.9 (14:20) -1.4 (-00:0) 6.7 7.5 (19:10) 4.72 (18:20) 0 0 0 0 0
07-02-2019 11 (16:00) -0.4 (00:00) 5.3 7.22 (18:10) 4.44 (17:20) 0 0 0 0 0
06-02-2019 14 (14:20) -0.4 (00:00) 6.8 5.83 (16:30) 3.61 (17:50) 0 0 0 0 0
05-02-2019 12.5 (15:30) -1.8 (-00:0) 5.4 5.83 (15:20) 3.33 (17:40) 0 0 0 0 0
04-02-2019 11.1 (15:20) -5.4 (-00:0) 2.9 6.39 (15:20) 4.17 (16:30) 0 0 0 0 0
03-02-2019 3.3 (17:00) -4.1 (-00:0) -0.4 11.67 (01:10) 7.22 (00:30) 0 0 0 0 0
02-02-2019 3.5 (15:20) -2.1 (-00:0) 0.7 16.39 (15:00) 10.83 (15:10) 0 0 0 0 0
01-02-2019 8.5 (00:00) 0.3 (00:00) 4.4 23.06 (15:20) 10 (12:00) 5.4 3.8 0.2 1.2 0.2
31-01-2019 12.6 (15:00) 6.4 (00:00) 9.5 14.44 (14:20) 7.78 (14:10) 0.2 0 0 0 0.2
30-01-2019 6.4 (23:50) 0.4 (00:00) 3.4 11.67 (21:30) 5.83 (21:50) 1 0 0 0.8 0.2
29-01-2019 8 (13:40) 1.5 (00:00) 4.8 18.06 (13:40) 10.28 (13:40) 0.4 0 0 0.2 0.2
28-01-2019 7.5 (16:10) 0.1 (00:00) 3.8 13.61 (16:50) 8.33 (16:20) 0 0 0 0 0
27-01-2019 7 (15:40) 1.2 (00:00) 4.1 14.44 (15:10) 8.89 (15:10) 0 0 0 0 0
26-01-2019 15.4 (14:50) -2 (-00:0) 6.7 5.83 (17:00) 3.61 (16:50) 0 0 0 0 0
25-01-2019 9.8 (15:10) 1.1 (00:00) 5.5 8.33 (15:30) 5.28 (14:40) 0 0 0 0 0
24-01-2019 11.8 (16:10) 4.6 (00:00) 8.2 16.11 (15:00) 10 (15:00) 0 0 0 0 0

Gráficas

Temp. máximas Temp. mínimas Temp. medias Precipitaciones Rachas de viento máximas Velocidades máximas media en intervalos de 10 minutos

Datos horarios

Fecha y hora oficial Temperatura (ºC) Velocidad del viento (km/h) Dirección del viento Racha (km/h) Dirección de racha Precipitación (mm) Presión (hPa) Tendencia (hPa) Humedad (%)
2019-02-22 23:00:00 4.7 3 Sudoeste 6 Este 0 901.6 0.7 50
2019-02-22 22:00:00 6.3 4 Sur 8 Sudeste 0 901.2 0.8 44
2019-02-22 21:00:00 8.3 3 Este 7 Sudeste 0 900.9 0.8 38
2019-02-22 20:00:00 10.2 3 Este 8 Este 0 900.9 1 34
2019-02-22 19:00:00 13.8 2 Este 12 Oeste 0 900.4 0.5 27
2019-02-22 18:00:00 15.3 9 Sudeste 21 Sudeste 0 900.1 -0.1 23
2019-02-22 17:00:00 16.6 10 Sudeste 24 Sur 0 899.9 -0.6 21
2019-02-22 16:00:00 16.8 14 Sur 28 Sur 0 899.9 -1.2 23
2019-02-22 15:00:00 15.8 14 Sudeste 32 Sur 0 900.2 -1.2 24
2019-02-22 14:00:00 14.7 15 Sur 33 Sur 0 900.5 -0.9 27
2019-02-22 13:00:00 13.1 18 Sudeste 35 Sudeste 0 901.1 -0.3 30
2019-02-22 12:00:00 12.2 17 Sudeste 31 Sudeste 0 901.4 0.1 34
2019-02-22 11:00:00 10.7 19 Sudeste 31 Sudeste 0 901.4 0.5 41
2019-02-22 10:00:00 8.5 9 Sudeste 20 Sur 0 901.4 0.4 50
2019-02-22 09:00:00 5.5 9 Sudeste 23 Sur 0 901.3 0.4 55
2019-02-22 08:00:00 5.8 10 Sudeste 21 Sur 0 900.9 0 55
2019-02-22 07:00:00 5.4 13 Sudeste 22 Sudeste 0 901 0.1 54
2019-02-22 06:00:00 4.5 11 Sudeste 18 Sudeste 0 900.9 0.2 57
2019-02-22 05:00:00 3.4 8 Sur 16 Sudeste 0 900.9 -0.4 60
2019-02-22 04:00:00 4.9 9 Sur 17 Sur 0 900.9 -0.2 55
2019-02-22 03:00:00 4.3 8 Sudeste 15 Sudeste 0 900.7 -0.4 58
2019-02-22 02:00:00 2.4 4 Sudeste 9 Sudoeste 0 901.3 0.3 65
2019-02-22 01:00:00 2.1 5 Sur 8 Sur 0 901.1 0.5 68
2019-02-22 00:00:00 2.5 2 Sudoeste 5 Sudeste 0 901.1 1.2 64
2019-02-21 23:00:00 4.9 3 Oeste 10 Sur 0 901 1.4 56
2019-02-21 22:00:00 4.9 2 Sur 9 Sudeste 0 900.6 2 56
2019-02-21 21:00:00 6.1 7 Sudeste 15 Sudeste 0 899.9 1.6 53
2019-02-21 20:00:00 7.2 7 Este 11 Sudeste 0 899.6 1.6 50
2019-02-21 19:00:00 10.3 3 Sur 19 Sur 0 898.6 0.8 42
2019-02-21 18:00:00 12.4 10 Sudeste 28 Sudeste 0 898.3 0.6 36
2019-02-21 17:00:00 13.2 13 Sudeste 32 Sudeste 0 898 0.1 35
2019-02-21 16:00:00 13.1 18 Sudeste 33 Sudeste 0 897.8 -0.3 34
2019-02-21 15:00:00 13.1 17 Sudeste 31 Sudeste 0 897.7 -0.3 37
2019-02-21 14:00:00 12.9 14 Sudeste 33 Sudeste 0 897.9 0.1 43
2019-02-21 13:00:00 11.7 16 Sudeste 32 Sudeste 0 898.1 0.7 48
2019-02-21 12:00:00 10.5 15 Sudeste 32 Sudeste 0 898 1.1 57
2019-02-21 11:00:00 9 15 Sudeste 24 Sudeste 0 897.8 1.3 65
2019-02-21 10:00:00 5.8 6 Sur 16 Sur 0 897.4 1.1 76
2019-02-21 09:00:00 3.1 3 Sudeste 14 Sudeste 0 896.9 0.9 85
2019-02-21 08:00:00 2.4 9 Sudeste 15 Sudeste 0 896.5 0.3 89
2019-02-21 07:00:00 1.9 5 Sudeste 9 Sudeste 0 896.3 0.1 87
2019-02-21 06:00:00 0.3 5 Sudeste 9 Sudeste 0 896 -0.4 94
2019-02-21 05:00:00 -0.5 5 Sudeste 7 Sudeste 0 896.2 -0.1 92
2019-02-21 04:00:00 0.2 2 Sudeste 5 Sudeste 0 896.2 0.1 86
2019-02-21 03:00:00 1 0 Calma 5 Sur 0 896.4 0.4 89
2019-02-21 02:00:00 1.8 2 Este 8 Sudeste 0 896.3 0.4 87
2019-02-21 01:00:00 2.3 3 Sudeste 6 Sudeste 0 896.1 0.6 85
2019-02-21 00:00:00 3 2 Sudeste 5 Sudeste 0 896 1.1 80
2019-02-20 23:00:00 4.5 3 Sur 9 Sudeste 0 895.9 1.3 77
2019-02-20 22:00:00 6.2 4 Sur 12 Sudeste 0 895.5 1.5 72
2019-02-20 21:00:00 6.9 5 Sudeste 13 Sudeste 0 894.9 1.3 69
2019-02-20 20:00:00 7.3 8 Sudeste 14 Sudeste 0 894.6 1.1 65
2019-02-20 19:00:00 8.5 7 Este 20 Sudeste 0 894 0.6 63
2019-02-20 18:00:00 10.9 9 Sudeste 21 Sudeste 0 893.6 0.1 55
2019-02-20 17:00:00 11.9 9 Sudeste 19 Sudeste 0 893.5 -0.3 47
2019-02-20 16:00:00 10.9 10 Sudeste 20 Sudeste 0 893.4 -0.7 50
2019-02-20 15:00:00 12.9 7 Sudoeste 17 Sudoeste 0 893.5 -0.5 45
2019-02-20 14:00:00 10.3 5 Sur 15 Sudeste 0 893.8 0 57
2019-02-20 13:00:00 9.7 3 Sudeste 11 Sudeste 0 894.1 0.6 63
2019-02-20 12:00:00 9.8 4 Sudeste 8 Sudeste 0 894 0.9 63
2019-02-20 11:00:00 6.9 3 Sudoeste 6 Sudoeste 0 893.8 1.6 69
2019-02-20 10:00:00 4 3 Sur 7 Sudeste 0 893.5 1.7 84
2019-02-20 09:00:00 0.9 4 Sudeste 8 Sudoeste 0 893.1 1.5 92
2019-02-20 08:00:00 0.7 3 Sudeste 6 Oeste 0 892.2 1.1 92
2019-02-20 07:00:00 0.7 4 Sudeste 6 Sudeste 0 891.8 0.3 92
2019-02-20 06:00:00 1.7 3 Sur 11 Sudeste 0 891.6 -0.1 87
2019-02-20 05:00:00 1.6 5 Sur 10 Sur 0 891.1 -0.6 90
2019-02-20 04:00:00 1.4 6 Sudeste 11 Sudeste 0 891.5 0 89
2019-02-20 03:00:00 1.6 5 Sudeste 10 Sudeste 0 891.7 0.2 87
2019-02-20 02:00:00 1.6 6 Sudeste 11 Sudeste 0 891.7 0.1 93
2019-02-20 01:00:00 1.5 2 Norte 10 Sudoeste 0 891.5 0.3 90
2019-02-20 00:00:00 2.1 2 Sudoeste 11 Sur 0 891.5 0.5 89
2019-02-19 23:00:00 3.7 8 Sur 14 Sudeste 0 891.6 0.9 85
2019-02-19 22:00:00 3.6 4 Este 10 Sudoeste 0 891.2 1.1 88
2019-02-19 21:00:00 5 4 Sur 12 Sudoeste 0 891 1.2 83
2019-02-19 20:00:00 6.3 4 Sudoeste 8 Sur 0 890.7 0.8 79
2019-02-19 19:00:00 7.5 4 Este 14 Nordeste 0 890.1 0 75
2019-02-19 18:00:00 8.6 9 Este 14 Este 0 889.8 -0.2 72
2019-02-19 17:00:00 9.2 6 Norte 23 Noroeste 0 889.9 -0.5 65
2019-02-19 16:00:00 9.6 7 Noroeste 13 Noroeste 0 890.1 -0.8 65
2019-02-19 15:00:00 9.1 6 Norte 10 Noroeste 0.2 890 -0.9 69
2019-02-19 14:00:00 9.6 4 Sudeste 16 Sur 0 890.4 -0.4 60
2019-02-19 13:00:00 9.8 8 Sudeste 16 Sudeste 0 890.9 0.2 55
2019-02-19 12:00:00 9.6 8 Sur 15 Sur 0 890.9 0.5 59
2019-02-19 11:00:00 6.9 3 Sudoeste 10 Sur 0 890.8 0.9 70
2019-02-19 10:00:00 5.9 4 Sudeste 11 Sudeste 0 890.7 0.8 74
2019-02-19 09:00:00 3.6 5 Este 8 Sur 0 890.4 0.7 85
2019-02-19 08:00:00 3.4 5 Sudeste 10 Sudeste 0 889.9 0.2 85
2019-02-19 07:00:00 3.6 4 Este 7 Nordeste 0 889.9 -0.2 88
2019-02-19 06:00:00 3.6 4 Este 11 Noroeste 0 889.7 -0.5 76
2019-02-19 05:00:00 4.7 8 Sur 19 Sudeste 0 889.7 -0.5 72
2019-02-19 04:00:00 2.9 7 Sudeste 17 Norte 0 890.1 -0.2 77
2019-02-19 03:00:00 3.3 5 Sudeste 11 Sudeste 0 890.2 -0.4 75
2019-02-19 02:00:00 2.3 4 Sudeste 7 Sudeste 0 890.2 -0.2 76
2019-02-19 01:00:00 1.6 3 Sudeste 7 Sur 0 890.3 0.2 77
2019-02-19 00:00:00 2.6 2 Oeste 9 Sudeste 0 890.6 0.9 74
2019-02-18 23:00:00 4 5 Sur 12 Sudeste 0 890.4 0.9 70
2019-02-18 22:00:00 4.9 7 Sudeste 12 Sudeste 0 890.1 1.2 67
2019-02-18 21:00:00 5.6 7 Sudeste 14 Sudeste 0 889.7 1 64
2019-02-18 20:00:00 6.9 6 Sudeste 16 Sudeste 0 889.5 0.9 60
2019-02-18 19:00:00 7.4 6 Sudeste 18 Sudeste 0 888.9 0.3 59
2019-02-18 18:00:00 9.4 11 Sudeste 19 Sudeste 0 888.7 0 50
2019-02-18 17:00:00 10.3 11 Sur 23 Sur 0 888.6 -0.6 48
2019-02-18 16:00:00 9.9 10 Sur 26 Sudeste 0 888.6 -1.1 51
2019-02-18 15:00:00 9.3 13 Sudeste 27 Sudeste 0 888.7 -1.1 56
2019-02-18 14:00:00 8.4 11 Sudeste 22 Sur 0 889.2 -0.3 61
2019-02-18 13:00:00 7.2 13 Sudeste 26 Sudeste 0 889.7 0.2 66
2019-02-18 12:00:00 6.1 14 Sudeste 29 Sudeste 0 889.8 0.8 69
2019-02-18 11:00:00 5 18 Sudeste 32 Sudeste 0 889.5 1.2 76
2019-02-18 10:00:00 4 10 Sudeste 26 Sur 0 889.5 1.2 81
2019-02-18 09:00:00 3.4 9 Sudeste 26 Sudeste 0 889 0.8 83
2019-02-18 08:00:00 3.2 13 Sudeste 31 Sudeste 0 888.3 0.1 84
2019-02-18 07:00:00 3.2 16 Sudeste 34 Sur 0 888.3 -0.5 81
2019-02-18 06:00:00 3.6 14 Sudeste 37 Sudeste 0 888.2 -0.9 77
2019-02-18 05:00:00 4.1 14 Sudeste 27 Sur 0 888.2 -1.1 71
2019-02-18 04:00:00 4.5 10 Sudeste 21 Sudeste 0 888.8 -0.7 67
2019-02-18 03:00:00 4.8 8 Sudeste 23 Sur 0 889.1 -0.9 63
2019-02-18 02:00:00 5.3 10 Sudeste 28 Sudeste 0 889.3 -0.9 58
2019-02-18 01:00:00 6 16 Sudeste 28 Sudeste 0 889.5 -1.1 44
2019-02-18 00:00:00 4.4 8 Sudeste 16 Sur 0 890 -0.8 52
2019-02-17 23:00:00 4.1 6 Sudeste 12 Sudeste 0 890.2 -0.3 53
2019-02-17 22:00:00 5.1 6 Sudeste 14 Sudeste 0 890.6 0.5 49
2019-02-17 21:00:00 6.2 9 Sur 19 Sur 0 890.8 0.9 46
2019-02-17 20:00:00 7.3 12 Sur 32 Sur 0 890.5 0.3 43
2019-02-17 19:00:00 8.7 17 Sur 31 Sur 0 890.1 -0.7 39
2019-02-17 18:00:00 10.7 9 Sur 37 Sudeste 0 889.9 -1.5 34
2019-02-17 17:00:00 11.1 20 Sudeste 40 Sudeste 0 890.2 -1.6 32
2019-02-17 16:00:00 11.4 15 Sudeste 31 Sudeste 0 890.8 -1.8 30
2019-02-17 15:00:00 11.3 17 Sudeste 42 Sur 0 891.4 -1.8 31
2019-02-17 14:00:00 11.1 16 Sur 34 Sur 0 891.8 -1.6 30
2019-02-17 13:00:00 9.8 17 Sudeste 36 Sudeste 0 892.6 -1 30
2019-02-17 12:00:00 8.2 19 Sudeste 38 Sudeste 0 893.2 -0.6 31
2019-02-17 11:00:00 7 19 Sur 36 Sur 0 893.4 0 28
2019-02-17 10:00:00 5.8 16 Sudeste 36 Sur 0 893.6 0 30
2019-02-17 09:00:00 3.4 13 Sur 28 Sudeste 0 893.8 0.1 35
2019-02-17 08:00:00 2.9 15 Sudeste 32 Sur 0 893.4 -0.3 36
2019-02-17 07:00:00 3.6 18 Sudeste 31 Sudeste 0 893.6 -0.2 41
2019-02-17 06:00:00 3.6 17 Sudeste 37 Sudeste 0 893.7 -0.5 45
2019-02-17 05:00:00 3.8 10 Sur 34 Sudeste 0 893.7 -0.9 47
2019-02-17 04:00:00 4.8 28 Sudeste 43 Sudeste 0 893.8 -0.9 50
2019-02-17 03:00:00 5.2 26 Sudeste 37 Sudeste 0 894.2 -0.1 54
2019-02-17 02:00:00 5.5 22 Sudeste 31 Sur 0 894.6 -0.2 54
2019-02-17 01:00:00 6 18 Sudeste 44 Sudeste 0 894.7 0 52
2019-02-17 00:00:00 7.2 25 Sudeste 49 Sudeste 0 894.3 -0.3 48
2019-02-16 23:00:00 8.3 15 Sudeste 45 Sudeste 0 894.8 0.3 41
2019-02-16 22:00:00 9 19 Sudeste 45 Sudeste 0 894.7 0.6 45
2019-02-16 21:00:00 9.4 16 Sur 39 Sudeste 0 894.6 0.8 42
2019-02-16 20:00:00 9.5 14 Sur 32 Sur 0 894.5 0.4 41
2019-02-16 19:00:00 10.5 12 Sur 44 Sudeste 0 894.1 -0.2 35
2019-02-16 18:00:00 12.1 15 Sudeste 33 Sur 0 893.8 -1.2 32
2019-02-16 17:00:00 12.6 18 Sudeste 37 Sudeste 0 894.1 -1.4 31
2019-02-16 16:00:00 13.3 12 Sur 33 Sudeste 0 894.3 -1.6 27
2019-02-16 15:00:00 13.3 15 Sur 30 Sudeste 0 895 -1.3 29
2019-02-16 14:00:00 12.4 17 Sudeste 40 Sudeste 0 895.5 -1.1 32
2019-02-16 13:00:00 11.5 16 Sudeste 39 Sudeste 0 895.9 -0.5 40
2019-02-16 12:00:00 10.6 19 Sudeste 41 Sudeste 0 896.3 -0.1 41
2019-02-16 11:00:00 10.1 13 Sudeste 35 Sudeste 0 896.6 0.7 47
2019-02-16 10:00:00 8.6 15 Sudeste 28 Sudeste 0 896.4 0.6 50
2019-02-16 09:00:00 7 13 Sudeste 30 Sur 0 896.4 0.6 58
2019-02-16 08:00:00 6.5 11 Sudeste 24 Sudeste 0 895.9 0.2 60
2019-02-16 07:00:00 6.4 10 Sudeste 19 Sudeste 0 895.8 0.1 61
2019-02-16 06:00:00 7 14 Sudeste 30 Sudeste 0 895.8 -0.3 60
2019-02-16 05:00:00 7 11 Sudeste 32 Sudeste 0 895.7 -0.6 61
2019-02-16 04:00:00 7.3 11 Sudeste 31 Sudeste 0 895.7 -0.9 64
2019-02-16 03:00:00 6.4 8 Sur 20 Sudeste 0 896.1 -0.6 70
2019-02-16 02:00:00 6.3 4 Sur 14 Sudeste 0 896.3 -0.6 63
2019-02-16 01:00:00 5.8 7 Sudeste 16 Este 0 896.6 -0.1 63
2019-02-16 00:00:00 4.9 3 Sudeste 10 Sur 0 896.7 0.3 67
2019-02-15 23:00:00 4.9 6 Sudeste 9 Sudeste 0 896.9 0.6 55
2019-02-15 22:00:00 6.3 3 Sudeste 8 Sur 0 896.7 0.7 50
2019-02-15 21:00:00 7.8 0 Calma 9 Este 0 896.4 0.6 45
2019-02-15 20:00:00 10.2 7 Este 14 Nordeste 0 896.3 0.3 41
2019-02-15 19:00:00 12.1 9 Nordeste 17 Norte 0 896 -0.2 36
2019-02-15 18:00:00 14.6 12 Norte 20 Norte 0 895.8 -0.7 31
2019-02-15 17:00:00 15.8 12 Norte 19 Nordeste 0 896 -1.2 28
2019-02-15 16:00:00 16.1 12 Norte 23 Norte 0 896.2 -1.8 28
2019-02-15 15:00:00 16.9 9 Norte 18 Noroeste 0 896.5 -1.9 27
2019-02-15 14:00:00 16.2 3 Este 12 Sudeste 0 897.2 -1.2 25
2019-02-15 13:00:00 14.5 6 Sudeste 12 Sudeste 0 898 -0.1 31
2019-02-15 12:00:00 11.6 6 Sudeste 10 Sudeste 0 898.4 0.4 43
2019-02-15 11:00:00 6.8 5 Sudoeste 9 Sudoeste 0 898.4 0.7 47
2019-02-15 10:00:00 3.9 0 Calma 7 Sur 0 898.1 0.4 58
2019-02-15 09:00:00 -0.6 3 Sudeste 9 Sudeste 0 898 0.1 77
2019-02-15 08:00:00 -0.9 2 Sur 5 Sudeste 0 897.7 -0.1 75
2019-02-15 07:00:00 -0.4 3 Sur 9 Sur 0 897.7 -0.3 71
2019-02-15 06:00:00 -0.3 5 Sur 13 Sudoeste 0 897.9 -0.3 70
2019-02-15 05:00:00 0.6 2 Sudeste 14 Sudoeste 0 897.8 -0.5 67
2019-02-15 04:00:00 2.1 8 Sudoeste 17 Sur 0 898 -0.2 65
2019-02-15 03:00:00 3.8 10 Sur 23 Sur 0 898.2 0.1 63
2019-02-15 02:00:00 5.2 13 Sur 22 Sur 0 898.3 0.2 64
2019-02-15 01:00:00 5.4 11 Sur 21 Sur 0 898.2 -0.1 63
2019-02-15 00:00:00 6 9 Sur 21 Sur 0 898.1 0 61
2019-02-14 23:00:00 5.7 12 Sudeste 22 Sudeste 0 898.1 0.1 62
2019-02-14 22:00:00 6.2 14 Sudeste 30 Sur 0 898.3 0.5 59
2019-02-14 21:00:00 6.6 12 Sudeste 24 Sudeste 0 898.1 0.7 48
2019-02-14 20:00:00 7.3 10 Sur 23 Sur 0 898 0.4 47
2019-02-14 19:00:00 8.2 7 Este 28 Sudeste 0 897.8 -0.1 44
2019-02-14 18:00:00 10.4 13 Sudeste 35 Sudeste 0 897.4 -0.7 37
2019-02-14 17:00:00 11.4 20 Sudeste 34 Sudeste 0 897.6 -0.9 37
2019-02-14 16:00:00 11.5 18 Sudeste 36 Sudeste 0 897.9 -1.5 37
2019-02-14 15:00:00 11.4 18 Sur 33 Sur 0 898.1 -1.5 35
2019-02-14 14:00:00 10.2 20 Sudeste 38 Sudeste 0 898.5 -1.3 40
2019-02-14 13:00:00 9.2 19 Sudeste 36 Sudeste 0 899.4 -0.5 38
2019-02-14 12:00:00 7.3 19 Sudeste 40 Sur 0 899.6 -0.2 47
2019-02-14 11:00:00 5.8 16 Sudeste 33 Sur 0 899.8 0.7 52
2019-02-14 10:00:00 4.5 14 Sudeste 30 Sur 0 899.9 0.7 51
2019-02-14 09:00:00 3 15 Sudeste 28 Sudeste 0 899.8 0.6 56
2019-02-14 08:00:00 3.4 14 Sudeste 30 Sudeste 0 899.1 0.2 59
2019-02-14 07:00:00 3.7 9 Sudeste 25 Sudeste 0 899.2 0.3 66
2019-02-14 06:00:00 3.9 6 Sur 24 Sudeste 0 899.2 -0.1 65
2019-02-14 05:00:00 4.3 9 Sur 22 Sudeste 0 898.9 -0.4 62
2019-02-14 04:00:00 5 8 Sudeste 21 Sudeste 0 898.9 -0.3 53
2019-02-14 03:00:00 5.2 12 Sudeste 25 Sudeste 0 899.3 0.1 54
2019-02-14 02:00:00 5.3 11 Sudeste 27 Sudeste 0 899.3 0.1 57
2019-02-14 01:00:00 5.8 6 Sudeste 16 Sur 0 899.2 0.2 60
2019-02-14 00:00:00 6.6 7 Sur 16 Sur 0 899.2 0 57
2019-02-13 23:00:00 6.4 6 Sur 16 Sudeste 0 899.2 0.2 59
2019-02-13 22:00:00 5.3 7 Sudeste 13 Sudeste 0 899 0.3 66
2019-02-13 21:00:00 6.1 8 Sudeste 14 Sudeste 0 899.2 0.7 66
2019-02-13 20:00:00 7.4 10 Sudeste 17 Sudeste 0 899 0.6 60
2019-02-13 19:00:00 9.7 10 Sudeste 23 Sudeste 0 898.7 0.4 51
2019-02-13 18:00:00 12.1 15 Sudeste 26 Sudeste 0 898.5 0.1 39
2019-02-13 17:00:00 13.4 13 Sudeste 23 Sudeste 0 898.4 -0.4 36
2019-02-13 16:00:00 14.2 10 Sudeste 22 Sudeste 0 898.3 -1.2 30
2019-02-13 15:00:00 14.1 11 Sudeste 20 Sur 0 898.4 -1.4 35
2019-02-13 14:00:00 13.9 8 Sudeste 20 Este 0 898.8 -1.1 40
2019-02-13 13:00:00 12.9 7 Sudeste 13 Este 0 899.5 -0.2 31
2019-02-13 12:00:00 10.2 5 Sur 7 Sur 0 899.8 0.2 40
2019-02-13 11:00:00 5.6 4 Sur 9 Sur 0 899.9 0.6 49
2019-02-13 10:00:00 1.8 2 Sudoeste 8 Sudoeste 0 899.7 0.5 62
2019-02-13 09:00:00 -1.6 3 Sur 6 Sur 0 899.6 0.4 75
2019-02-13 08:00:00 -1.4 4 Sur 10 Sur 0 899.3 0 73
2019-02-13 07:00:00 -1.1 4 Sur 6 Sur 0 899.2 -0.3 74
2019-02-13 06:00:00 -0.8 2 Sur 8 Sur 0 899.2 -0.3 73
2019-02-13 05:00:00 -1 4 Sur 6 Sur 0 899.3 -0.3 70
2019-02-13 04:00:00 0.3 4 Sudoeste 9 Sudoeste 0 899.5 -0.1 66
2019-02-13 03:00:00 1.1 5 Sudoeste 12 Sur 0 899.5 -0.2 64
2019-02-13 02:00:00 2.1 9 Sur 13 Sur 0 899.6 -0.6 62
2019-02-13 01:00:00 3.2 3 Sudeste 11 Sudeste 0 899.6 -0.7 57
2019-02-13 00:00:00 3.4 4 Sudeste 10 Sudeste 0 899.7 -0.5 55
2019-02-12 23:00:00 2.7 7 Sudeste 10 Sudeste 0 900.2 0.2 57
2019-02-12 22:00:00 2.9 3 Sudeste 6 Nordeste 0 900.3 0.7 57
2019-02-12 21:00:00 4.9 5 Este 14 Sudeste 0 900.2 0.7 48
2019-02-12 20:00:00 6.9 9 Sudeste 20 Sudeste 0 900 0.7 40
2019-02-12 19:00:00 8.3 9 Sudeste 20 Sudeste 0 899.6 0.5 36
2019-02-12 18:00:00 10.6 12 Sudeste 23 Sudeste 0 899.5 0.2 29
2019-02-12 17:00:00 11.2 14 Sudeste 26 Sudeste 0 899.3 -0.5 26
2019-02-12 16:00:00 11.3 16 Sudeste 27 Sudeste 0 899.1 -1.1 27
2019-02-12 15:00:00 10.4 15 Sudeste 27 Sudeste 0 899.3 -0.9 35
2019-02-12 14:00:00 9.8 19 Sudeste 28 Sudeste 0 899.8 -0.2 42
2019-02-12 13:00:00 9.7 11 Sudeste 25 Sudeste 0 900.2 0.4 40
2019-02-12 12:00:00 8.5 14 Sudeste 22 Sudeste 0 900.2 0.7 42
2019-02-12 11:00:00 6.4 7 Sudeste 12 Sudeste 0 900 0.7 44
2019-02-12 10:00:00 1.5 3 Sudeste 7 Este 0 899.8 0.4 64
2019-02-12 09:00:00 -1.6 3 Sudeste 6 Este 0 899.5 -0.2 85
2019-02-12 08:00:00 -1.7 3 Sudeste 6 Sudeste 0 899.3 -0.5 86
2019-02-12 07:00:00 -1.7 3 Este 7 Sur 0 899.4 -0.8 86
2019-02-12 06:00:00 -1.6 4 Sudeste 7 Sudoeste 0 899.7 -0.8 86
2019-02-12 05:00:00 -1.4 3 Sur 11 Sur 0 899.8 -0.8 85
2019-02-12 04:00:00 -1.1 5 Sur 10 Sur 0 900.2 -0.1 85
2019-02-12 03:00:00 -1 3 Sur 10 Sur 0 900.5 0.2 83
2019-02-12 02:00:00 -0.2 4 Sudoeste 9 Sur 0 900.6 0.3 81
2019-02-12 01:00:00 -0.1 2 Sur 7 Sudoeste 0 900.3 0.5 80
2019-02-12 00:00:00 0.8 3 Sur 6 Sur 0 900.3 0.6 76
2019-02-11 23:00:00 2.1 0 Calma 9 Nordeste 0 900.3 1 74
2019-02-11 22:00:00 3 0 Calma 8 Nordeste 0 899.8 1.1 70
2019-02-11 21:00:00 4.1 4 Nordeste 14 Nordeste 0 899.7 1.5 65
2019-02-11 20:00:00 5 9 Nordeste 17 Nordeste 0 899.3 1.1 60
2019-02-11 19:00:00 6.3 6 Norte 21 Nordeste 0 898.7 0.6 53
2019-02-11 18:00:00 8 11 Nordeste 26 Norte 0 898.2 0.1 48
2019-02-11 17:00:00 8.6 15 Nordeste 31 Norte 0 898.2 -0.3 43
2019-02-11 16:00:00 8.7 18 Norte 31 Norte 0 898.1 -0.9 29
2019-02-11 15:00:00 8.7 13 Norte 26 Norte 0 898.1 -0.9 30
2019-02-11 14:00:00 8.1 15 Norte 26 Norte 0 898.5 -0.5 37
2019-02-11 13:00:00 7.3 12 Nordeste 21 Nordeste 0 899 0.3 49
2019-02-11 12:00:00 5.8 7 Nordeste 20 Norte 0 899 0.9 65
2019-02-11 11:00:00 3.7 11 Norte 17 Nordeste 0 899 1.8 80
2019-02-11 10:00:00 2.3 6 Norte 11 Norte 0 898.7 2 87
2019-02-11 09:00:00 1.1 4 Norte 12 Norte 0 898.1 1.8 94
2019-02-11 08:00:00 1.2 8 Norte 11 Norte 0 897.2 1.2 94
2019-02-11 07:00:00 1.8 6 Norte 13 Noroeste 0 896.7 0.6 92
2019-02-11 06:00:00 2.5 6 Noroeste 13 Noroeste 0 896.3 1 87
2019-02-11 05:00:00 3.7 11 Noroeste 17 Noroeste 0 896 0.1 85
2019-02-11 04:00:00 4.1 12 Noroeste 20 Noroeste 0 896.1 0.7 86
2019-02-11 03:00:00 4.1 12 Noroeste 23 Noroeste 0 895.3 0.1 78
2019-02-11 02:00:00 4.8 16 Noroeste 27 Noroeste 0 895.9 1.3 83
2019-02-11 01:00:00 5.9 19 Noroeste 29 Noroeste 0 895.4 0.8 89
2019-02-11 00:00:00 6.6 19 Noroeste 35 Noroeste 0 895.2 0.9 87
2019-02-10 23:00:00 7.7 20 Oeste 38 Oeste 0 894.6 0.8 83
2019-02-10 22:00:00 7.9 19 Noroeste 41 Noroeste 0 894.6 1.2 84
2019-02-10 21:00:00 8.7 21 Noroeste 33 Noroeste 0 894.3 1.3 83
2019-02-10 20:00:00 9.3 21 Oeste 33 Noroeste 0 893.8 1 80
2019-02-10 19:00:00 9.9 14 Oeste 33 Oeste 0 893.4 0.7 78
2019-02-10 18:00:00 10.8 16 Oeste 34 Oeste 0 893 0.5 75
2019-02-10 17:00:00 11.1 17 Oeste 37 Oeste 0 892.8 0.4 71
2019-02-10 16:00:00 12 21 Oeste 46 Sudoeste 0 892.7 0 65
2019-02-10 15:00:00 13.6 21 Oeste 41 Noroeste 0 892.5 -0.2 58
2019-02-10 14:00:00 13.8 21 Oeste 40 Noroeste 0 892.4 -0.3 55
2019-02-10 13:00:00 12.6 18 Oeste 39 Oeste 0 892.7 0.6 56
2019-02-10 12:00:00 10.8 21 Oeste 34 Oeste 0 892.7 0.6 62
2019-02-10 11:00:00 8.2 14 Oeste 28 Oeste 0 892.7 0.8 70
2019-02-10 10:00:00 6.4 6 Sudeste 15 Oeste 0 892.1 0.4 75
2019-02-10 09:00:00 5.9 7 Sur 26 Oeste 0 892.1 0.5 79
2019-02-10 08:00:00 5.8 7 Sudoeste 22 Sudoeste 0 891.9 0.4 74
2019-02-10 07:00:00 5 10 Sudoeste 26 Oeste 0 891.7 0.2 79
2019-02-10 06:00:00 4.4 14 Sudoeste 26 Sudoeste 0 891.6 -0.3 78
2019-02-10 05:00:00 2.5 5 Sudoeste 10 Sudoeste 0 891.5 -0.4 85
2019-02-10 04:00:00 2.8 7 Sur 14 Sur 0 891.5 -0.7 83
2019-02-10 03:00:00 2.7 8 Sudeste 10 Sudeste 0 891.9 -0.1 85
2019-02-10 02:00:00 3 7 Sudeste 13 Sur 0 891.9 -0.4 87
2019-02-10 01:00:00 3.5 4 Sur 10 Sudoeste 0 892.2 -0.2 85
2019-02-10 00:00:00 3.7 3 Oeste 12 Sur 0 892 0.1 85
2019-02-09 23:00:00 3.9 3 Sur 14 Sur 0 892.3 0.7 84
2019-02-09 22:00:00 4.5 3 Este 10 Norte 0 892.4 1.2 84
2019-02-09 21:00:00 5.3 4 Sudeste 15 Sur 0 891.9 0.8 77
2019-02-09 20:00:00 6.6 10 Sudeste 16 Sudeste 0 891.6 0.3 75
2019-02-09 19:00:00 8 10 Sudeste 18 Sudeste 0 891.2 -0.2 70
2019-02-09 18:00:00 10 8 Sudeste 19 Sudeste 0 891.1 -0.6 61
2019-02-09 17:00:00 11.4 12 Sudeste 19 Sudeste 0 891.3 -0.9 55
2019-02-09 16:00:00 12.7 12 Sudeste 25 Sudeste 0 891.4 -1.4 48
2019-02-09 15:00:00 12.5 14 Sudeste 22 Sudeste 0 891.7 -1.7 47
2019-02-09 14:00:00 12 10 Sudeste 21 Sudeste 0 892.2 -1.5 46
2019-02-09 13:00:00 10.4 8 Sur 20 Sudeste 0 892.8 -1 55
2019-02-09 12:00:00 7.4 5 Sur 11 Sur 0 893.4 -0.2 69
2019-02-09 11:00:00 4.7 3 Sudoeste 10 Sur 0 893.7 0.7 76
2019-02-09 10:00:00 1.8 4 Sudoeste 7 Sudoeste 0 893.8 0.8 86
2019-02-09 09:00:00 1 3 Sur 8 Sur 0 893.6 0.5 89
2019-02-09 08:00:00 0.7 3 Sur 8 Sur 0 893 -0.1 90
2019-02-09 07:00:00 0.8 3 Sur 7 Sur 0 893 -0.5 92
2019-02-09 06:00:00 0.7 2 Sur 7 Sudeste 0 893.1 -0.7 96
2019-02-09 05:00:00 -0.3 3 Sur 5 Sur 0 893.1 -0.6 95
2019-02-09 04:00:00 0.1 2 Sur 7 Sur 0 893.5 -0.3 93
2019-02-09 03:00:00 0.8 0 Calma 3 Este 0 893.8 0 93
2019-02-09 02:00:00 1.9 0 Calma 10 Sur 0 893.7 0.1 92
2019-02-09 01:00:00 2.8 0 Calma 6 Noroeste 0 893.8 0.5 90
2019-02-09 00:00:00 3.6 2 Oeste 10 Norte 0 893.8 0.5 85
2019-02-08 23:00:00 4.3 6 Norte 13 Norte 0 893.6 0.8 85
2019-02-08 22:00:00 5.2 3 Norte 13 Noroeste 0 893.3 1.4 77
2019-02-08 21:00:00 6.3 10 Oeste 20 Oeste 0 893.3 1.8 68
2019-02-08 20:00:00 7.5 9 Noroeste 27 Noroeste 0 892.8 1.8 51
2019-02-08 19:00:00 9.3 9 Noroeste 24 Noroeste 0 891.9 0.7 48
2019-02-08 18:00:00 12.9 8 Norte 19 Sudeste 0 891.5 -0.2 46
2019-02-08 17:00:00 14.1 12 Sudeste 22 Sudeste 0 891 -1.1 43
2019-02-08 16:00:00 14.5 12 Sudeste 21 Sudeste 0 891.2 -1.5 42
2019-02-08 15:00:00 14.9 9 Sudeste 16 Sur 0 891.7 -1.4 38
2019-02-08 14:00:00 14.2 3 Este 15 Sudeste 0 892.1 -1 35
2019-02-08 13:00:00 12.4 3 Este 11 Nordeste 0 892.7 -0.3 40
2019-02-08 12:00:00 10.3 4 Sudeste 8 Nordeste 0 893.1 0.5 59
2019-02-08 11:00:00 6.2 5 Nordeste 9 Norte 0 893.1 0.7 70
2019-02-08 10:00:00 1.4 3 Sudoeste 5 Sudoeste 0 893 0.5 90
2019-02-08 09:00:00 -1 0 Calma 10 Sur 0 892.6 0 92
2019-02-08 08:00:00 -0.7 3 Sudeste 13 Sudoeste 0 892.4 -0.5 95
2019-02-08 07:00:00 -1.1 6 Sur 13 Sudoeste 0 892.5 -0.9 92
2019-02-08 06:00:00 -0.7 5 Sudoeste 10 Sur 0 892.6 -1.1 91
2019-02-08 05:00:00 -0.8 6 Sur 11 Sur 0 892.9 -1 94
2019-02-08 04:00:00 -0.5 6 Sur 12 Sudoeste 0 893.4 -1 94
2019-02-08 03:00:00 -0.4 7 Sur 12 Sur 0 893.7 -0.8 92
2019-02-08 02:00:00 -0.3 2 Sudeste 5 Sur 0 893.9 -0.6 92
2019-02-08 01:00:00 0.4 3 Sur 5 Sudeste 0 894.4 0.2 91
2019-02-08 00:00:00 1.2 4 Sudeste 8 Sudeste 0 894.5 0.3 88
2019-02-07 23:00:00 1.8 3 Sudeste 6 Sudeste 0 894.5 0.3 84
2019-02-07 22:00:00 3.1 3 Sudeste 8 Sur 0 894.2 0.3 80
2019-02-07 21:00:00 5.1 5 Sur 12 Norte 0 894.2 0.3 76
2019-02-07 20:00:00 6.5 9 Norte 12 Nordeste 0 894.2 0.5 71
2019-02-07 19:00:00 7.8 5 Nordeste 26 Norte 0 893.9 0.2 66
2019-02-07 18:00:00 9.6 14 Norte 24 Norte 0 893.9 -0.3 59
2019-02-07 17:00:00 10.6 13 Norte 21 Norte 0 893.7 -0.8 56
2019-02-07 16:00:00 10.9 12 Norte 19 Norte 0 893.7 -1.6 54
2019-02-07 15:00:00 10.1 11 Norte 24 Noroeste 0 894.2 -1.4 59
2019-02-07 14:00:00 9.5 12 Norte 25 Norte 0 894.5 -1 63
2019-02-07 13:00:00 8.4 12 Norte 23 Norte 0 895.3 0.1 69
2019-02-07 12:00:00 6.8 14 Norte 20 Norte 0 895.6 0.7 66
2019-02-07 11:00:00 4.5 3 Sudoeste 6 Oeste 0 895.5 1 66
2019-02-07 10:00:00 1.9 4 Sur 8 Sur 0 895.2 0.8 80
2019-02-07 09:00:00 -0.3 4 Este 8 Sur 0 894.9 0.8 88
2019-02-07 08:00:00 -0.1 3 Sur 6 Sur 0 894.5 0.5 87
2019-02-07 07:00:00 -0.1 0 Calma 5 Este 0 894.4 -0.1 87
2019-02-07 06:00:00 0.5 0 Calma 7 Este 0 894.1 -0.5 87
2019-02-07 05:00:00 0.9 4 Sudeste 8 Sudeste 0 894 -1 82
2019-02-07 04:00:00 1.9 0 Calma 9 Sudeste 0 894.5 -0.8 82
2019-02-07 03:00:00 2.7 3 Este 5 Este 0 894.6 -0.4 79
2019-02-07 02:00:00 2.7 2 Sudeste 8 Sur 0 895 0.1 79
2019-02-07 01:00:00 2.6 3 Sudeste 6 Este 0 895.3 0.4 81
2019-02-07 00:00:00 3.4 4 Sudeste 8 Sudeste 0 895 0.1 79
2019-02-06 23:00:00 3.8 3 Sudeste 7 Sur 0 894.9 0 79
2019-02-06 22:00:00 4.6 3 Sur 6 Sudeste 0 894.9 0.1 77
2019-02-06 21:00:00 6.6 4 Sur 8 Sur 0 894.9 0.5 72
2019-02-06 20:00:00 9.1 0 Calma 13 Norte 0 894.9 0.4 65
2019-02-06 19:00:00 10.2 9 Norte 19 Noroeste 0 894.8 0.2 62
2019-02-06 18:00:00 12.4 13 Norte 20 Norte 0 894.4 -0.6 47
2019-02-06 17:00:00 13.4 12 Norte 21 Noroeste 0 894.5 -1 50
2019-02-06 16:00:00 13.9 8 Norte 20 Nordeste 0 894.6 -1.6 49
2019-02-06 15:00:00 13.4 12 Norte 20 Norte 0 895 -1.8 50
2019-02-06 14:00:00 13.8 6 Norte 14 Norte 0 895.5 -1.4 48
2019-02-06 13:00:00 12.9 7 Noroeste 14 Norte 0 896.2 -0.8 51
2019-02-06 12:00:00 10.9 2 Noroeste 5 Sudoeste 0 896.8 -0.1 51
2019-02-06 11:00:00 7.4 2 Sur 6 Sur 0 896.9 0.3 64
2019-02-06 10:00:00 2.8 6 Sur 9 Sur 0 897 0.4 82
2019-02-06 09:00:00 0.6 3 Sur 8 Sur 0 896.9 0.1 90
2019-02-06 08:00:00 0.4 3 Sudeste 15 Sur 0 896.6 -0.4 93
2019-02-06 07:00:00 0.3 4 Sudoeste 9 Sur 0 896.6 -1 93
2019-02-06 06:00:00 -0.4 3 Sudeste 6 Sudeste 0 896.8 -1.2 93
2019-02-06 05:00:00 0.1 0 Calma 8 Sur 0 897 -1.3 93
2019-02-06 04:00:00 0.3 2 Sur 7 Sudeste 0 897.6 -1.1 90
2019-02-06 03:00:00 0.6 3 Sudeste 6 Sudeste 0 898 -0.9 93
2019-02-06 02:00:00 0.9 0 Calma 4 Sudeste 0 898.3 -0.6 90
2019-02-06 01:00:00 1.5 4 Este 5 Oeste 0 898.7 -0.2 89
2019-02-06 00:00:00 2.1 4 Sur 7 Sur 0 898.9 0.2 86
2019-02-05 23:00:00 2.8 0 Calma 5 Sur 0 898.9 0.2 83
2019-02-05 22:00:00 4.3 3 Sur 7 Sur 0 898.9 0.3 77
2019-02-05 21:00:00 6.5 6 Nordeste 13 Norte 0 898.7 0.4 71
2019-02-05 20:00:00 7.6 9 Nordeste 15 Norte 0 898.7 0.3 68
2019-02-05 19:00:00 9.2 8 Norte 15 Norte 0 898.6 0.3 60
2019-02-05 18:00:00 11.4 10 Norte 18 Noroeste 0 898.3 -0.5 51
2019-02-05 17:00:00 12.5 9 Noroeste 17 Noroeste 0 898.4 -0.7 49
2019-02-05 16:00:00 12.3 9 Norte 21 Noroeste 0 898.3 -1.4 49
2019-02-05 15:00:00 12 10 Norte 21 Norte 0 898.8 -1.5 51
2019-02-05 14:00:00 11.9 8 Noroeste 17 Norte 0 899.1 -0.9 54
2019-02-05 13:00:00 11.1 3 Sur 9 Noroeste 0 899.7 0.1 55
2019-02-05 12:00:00 8.6 3 Sudoeste 7 Sur 0 900.3 1 60
2019-02-05 11:00:00 5.4 4 Sur 6 Sur 0 900 1.2 67
2019-02-05 10:00:00 1.1 3 Sur 5 Sudeste 0 899.6 0.9 77
2019-02-05 09:00:00 -1.1 3 Este 5 Sudeste 0 899.3 0.6 85
2019-02-05 08:00:00 -1.6 4 Este 5 Este 0 898.8 0.2 81
2019-02-05 07:00:00 -1.7 2 Sur 4 Sur 0 898.7 -0.1 81
2019-02-05 06:00:00 -1.4 2 Sur 8 Sur 0 898.7 -0.3 77
2019-02-05 05:00:00 -1.1 2 Sudeste 6 Sudeste 0 898.6 -0.6 75
2019-02-05 04:00:00 -0.5 0 Calma 5 Este 0 898.8 -0.4 71
2019-02-05 03:00:00 0.1 3 Este 6 Este 0 899 -0.2 66
2019-02-05 02:00:00 0.1 3 Sudeste 5 Sudeste 0 899.2 0.3 68
2019-02-05 01:00:00 0.5 3 Este 4 Este 0 899.2 0.4 67
2019-02-05 00:00:00 0.9 3 Este 5 Sur 0 899.2 0.6 66
2019-02-04 23:00:00 1.5 2 Nordeste 5 Nordeste 0 898.9 0.6 67
2019-02-04 22:00:00 2.8 0 Calma 6 Norte 0 898.8 0.6 62
2019-02-04 21:00:00 4.4 4 Noroeste 10 Norte 0 898.6 0.7 55
2019-02-04 20:00:00 5.5 7 Norte 16 Norte 0 898.3 0.5 51
2019-02-04 19:00:00 6.3 9 Norte 18 Norte 0 898.2 0.6 48
2019-02-04 18:00:00 8.5 12 Norte 21 Norte 0 897.9 0.1 35
2019-02-04 17:00:00 10.2 13 Noroeste 23 Noroeste 0 897.8 -0.2 29
2019-02-04 16:00:00 11.1 14 Noroeste 23 Norte 0 897.6 -0.9 25
2019-02-04 15:00:00 10.7 12 Norte 20 Norte 0 897.8 -1.3 24
2019-02-04 14:00:00 10.1 8 Sudoeste 14 Sudoeste 0 898 -1 26
2019-02-04 13:00:00 6.9 4 Sur 9 Sudoeste 0 898.5 -0.5 35
2019-02-04 12:00:00 3.1 2 Sudoeste 10 Sur 0 899.1 0.4 47
2019-02-04 11:00:00 0.8 6 Sur 12 Sur 0 899 0.5 57
2019-02-04 10:00:00 -2.7 2 Sur 8 Sur 0 899 0.7 73
2019-02-04 09:00:00 -4.6 4 Sur 8 Sur 0 898.7 0.5 81
2019-02-04 08:00:00 -5.1 3 Este 9 Sur 0 898.5 0.5 84
2019-02-04 07:00:00 -5 4 Sur 6 Sur 0 898.3 -0.2 85
2019-02-04 06:00:00 -5.1 2 Sudoeste 7 Sur 0 898.2 -0.8 85
2019-02-04 05:00:00 -4.8 4 Sudeste 10 Sudoeste 0 898 -1.4 83
2019-02-04 04:00:00 -4.2 4 Sudeste 12 Sur 0 898.5 -0.4 84
2019-02-04 03:00:00 -4.3 4 Oeste 13 Sur 0 899 0.3 86
2019-02-04 02:00:00 -4.3 0 Calma 5 Sur 0 899.4 0.7 89
2019-02-04 01:00:00 -3.8 2 Este 5 Este 0 898.9 0.7 86
2019-02-04 00:00:00 -3.2 4 Sudoeste 8 Sudoeste 0 898.7 0.8 85
2019-02-03 23:00:00 -2.5 2 Oeste 7 Norte 0 898.7 1.5 81
2019-02-03 22:00:00 -1.6 6 Noroeste 9 Norte 0 898.2 1.3 78
2019-02-03 21:00:00 -1 5 Norte 13 Nordeste 0 897.9 1.6 74
2019-02-03 20:00:00 -0.2 6 Norte 15 Norte 0 897.2 0.9 70
2019-02-03 19:00:00 0.8 6 Norte 22 Norte 0 896.9 0.8 64
2019-02-03 18:00:00 2.5 12 Norte 27 Norte 0 896.3 -0.2 56
2019-02-03 17:00:00 3.3 15 Norte 31 Norte 0 896.3 -0.2 51
2019-02-03 16:00:00 3 17 Norte 35 Norte 0 896.1 -0.5 52
2019-02-03 15:00:00 2.9 18 Norte 39 Norte 0 896.5 0 55
2019-02-03 14:00:00 2.3 23 Norte 37 Norte 0 896.5 0.5 53
2019-02-03 13:00:00 1.4 21 Norte 33 Noroeste 0 896.6 1.2 65
2019-02-03 12:00:00 -0.1 20 Norte 32 Noroeste 0 896.5 1.6 73
2019-02-03 11:00:00 -1.1 18 Norte 27 Norte 0 896 1.7 78
2019-02-03 10:00:00 -2.5 13 Norte 18 Norte 0 895.4 2.5 87
2019-02-03 09:00:00 -3.9 8 Noroeste 17 Noroeste 0 894.9 2.2 92
2019-02-03 08:00:00 -4 10 Noroeste 18 Noroeste 0 894.3 2.1 91
2019-02-03 07:00:00 -3.6 14 Noroeste 22 Norte 0 892.9 0.8 92
2019-02-03 06:00:00 -3.3 14 Noroeste 22 Noroeste 0 892.7 1 91
2019-02-03 05:00:00 -2.9 13 Noroeste 28 Noroeste 0 892.2 0.9 90
2019-02-03 04:00:00 -2.6 16 Noroeste 33 Noroeste 0 892.1 0.9 90
2019-02-03 03:00:00 -2.4 19 Noroeste 33 Noroeste 0 891.7 1.2 88
2019-02-03 02:00:00 -1.9 21 Noroeste 42 Noroeste 0 891.3 1.5 86
2019-02-03 01:00:00 -1.5 25 Noroeste 37 Noroeste 0 891.2 2 85
2019-02-03 00:00:00 -1.1 21 Noroeste 36 Noroeste 0 890.5 1.6 82
2019-02-02 23:00:00 -0.7 21 Noroeste 39 Noroeste 0 889.8 1.5 80
2019-02-02 22:00:00 -0.3 19 Noroeste 30 Noroeste 0 889.2 1.7 75
2019-02-02 21:00:00 -0.8 13 Noroeste 22 Noroeste 0 888.9 2.2 80
2019-02-02 20:00:00 -0.4 13 Noroeste 28 Noroeste 0 888.3 2.1 78
2019-02-02 19:00:00 0.5 22 Noroeste 44 Norte 0 887.5 2 71
2019-02-02 18:00:00 2 28 Noroeste 51 Noroeste 0 886.7 1.9 62
2019-02-02 17:00:00 2.3 31 Noroeste 49 Noroeste 0 886.2 1.6 64
2019-02-02 16:00:00 2.5 33 Noroeste 58 Noroeste 0 885.5 1.2 64
2019-02-02 15:00:00 3 34 Noroeste 59 Noroeste 0 884.8 1 58
2019-02-02 14:00:00 1.6 32 Noroeste 55 Noroeste 0 884.6 2 67
2019-02-02 13:00:00 1.5 27 Noroeste 48 Noroeste 0 884.3 3 70
2019-02-02 12:00:00 0.5 24 Noroeste 41 Noroeste 0 883.8 3.7 74
2019-02-02 11:00:00 0.1 26 Noroeste 42 Noroeste 0 882.6 4 75
2019-02-02 10:00:00 -1 21 Noroeste 36 Noroeste 0 881.3 3.9 80
2019-02-02 09:00:00 -1.9 17 Oeste 36 Noroeste 0 880.1 3.3 84
2019-02-02 08:00:00 -1.9 24 Noroeste 48 Oeste 0 878.6 2.8 80
2019-02-02 07:00:00 -1.5 30 Noroeste 47 Noroeste 0 877.4 2.4 81
2019-02-02 06:00:00 -1.1 26 Noroeste 45 Noroeste 0 876.8 2.4 81
2019-02-02 05:00:00 -0.9 23 Oeste 45 Oeste 0 875.8 2.2 82
2019-02-02 04:00:00 -0.3 27 Noroeste 54 Oeste 0 875 2.1 83
2019-02-02 03:00:00 0.2 29 Noroeste 53 Oeste 0 874.4 2.6 83
2019-02-02 02:00:00 0.5 28 Oeste 57 Oeste 0 873.6 2.8 83
2019-02-02 01:00:00 0.7 30 Oeste 56 Noroeste 0 872.9 2.8 82
2019-02-02 00:00:00 0.7 33 Oeste 69 Oeste 0 871.8 2.7 82
2019-02-01 23:00:00 0.8 29 Noroeste 57 Noroeste 0 870.8 2.7 84
2019-02-01 22:00:00 0.7 28 Oeste 60 Oeste 0 870.1 3.3 87
2019-02-01 21:00:00 0.8 26 Oeste 59 Noroeste 0 869.1 3 89
2019-02-01 20:00:00 1.5 36 Oeste 59 Oeste 0.2 868.1 2.9 80
2019-02-01 19:00:00 1.3 23 Oeste 57 Noroeste 0 866.8 1.5 79
2019-02-01 18:00:00 1.2 26 Oeste 55 Oeste 0.4 866.1 1.1 80
2019-02-01 17:00:00 1 21 Oeste 54 Oeste 0.6 865.2 0.5 84
2019-02-01 16:00:00 2.2 30 Oeste 83 Oeste 0.2 865.3 0.1 85
2019-02-01 15:00:00 3.9 31 Sudoeste 72 Sudoeste 0 865 -0.7 77
2019-02-01 14:00:00 6.6 26 Oeste 59 Oeste 0 864.7 -1.5 59
2019-02-01 13:00:00 6.5 30 Oeste 69 Sudoeste 0 865.2 -1.2 58
2019-02-01 12:00:00 4.6 36 Oeste 64 Sudoeste 0 865.7 -0.7 72
2019-02-01 11:00:00 4.6 25 Oeste 64 Oeste 0 866.2 -0.6 70
2019-02-01 10:00:00 2.9 28 Oeste 58 Oeste 0 866.4 -0.1 75
2019-02-01 09:00:00 1.8 18 Oeste 44 Oeste 0 866.4 -0.2 81
2019-02-01 08:00:00 2.6 21 Oeste 37 Oeste 0 866.8 -0.1 87
2019-02-01 07:00:00 3.4 12 Oeste 33 Oeste 0.2 866.5 -0.9 86
2019-02-01 06:00:00 3.9 17 Oeste 42 Oeste 0 866.6 -1.5 86
2019-02-01 05:00:00 4.4 7 Sudoeste 18 Oeste 0 866.9 -2.2 88
2019-02-01 04:00:00 4.3 5 Sur 21 Oeste 0 867.4 -1.9 89
2019-02-01 03:00:00 4.1 10 Oeste 26 Sudoeste 0.2 868.1 -1.4 90
2019-02-01 02:00:00 4.5 15 Oeste 50 Oeste 2.2 869.1 -0.7 87
2019-02-01 01:00:00 7.6 17 Oeste 34 Sudoeste 1.4 869.3 -1.2 87
2019-02-01 00:00:00 8.5 12 Oeste 32 Sur 0.2 869.5 -1.9 81
2019-01-31 23:00:00 8.5 12 Sur 31 Sur 0 869.8 -2.3 76
2019-01-31 22:00:00 7.9 14 Sur 30 Sur 0 870.5 -1.6 79
2019-01-31 21:00:00 8 7 Sudoeste 23 Sur 0 871.4 -1.6 80
2019-01-31 20:00:00 8.7 10 Sur 24 Sudoeste 0 872.1 -0.4 78
2019-01-31 19:00:00 9.7 12 Sudoeste 35 Sudoeste 0 872.1 -1.6 68
2019-01-31 18:00:00 10.7 23 Sudoeste 42 Oeste 0 873 -1.3 65
2019-01-31 17:00:00 11.3 16 Sur 49 Sudoeste 0 872.5 -2.6 68
2019-01-31 16:00:00 11.8 19 Sudoeste 45 Oeste 0 873.7 -2 64
2019-01-31 15:00:00 12.6 21 Oeste 52 Oeste 0 874.3 -2.2 62
2019-01-31 14:00:00 11.9 21 Oeste 48 Sudoeste 0 875.1 -1.2 65
2019-01-31 13:00:00 11.8 24 Oeste 50 Sudoeste 0 875.7 -0.7 67
2019-01-31 12:00:00 10.2 26 Oeste 42 Oeste 0 876.5 0.4 72
2019-01-31 11:00:00 8.8 22 Oeste 48 Oeste 0 876.3 0.1 77
2019-01-31 10:00:00 7.5 13 Oeste 33 Oeste 0 876.4 0.4 81
2019-01-31 09:00:00 6.6 17 Sudoeste 30 Oeste 0 876.1 0 83
2019-01-31 08:00:00 6.5 11 Sudoeste 26 Sudoeste 0 876.2 0 83
2019-01-31 07:00:00 7 11 Sudoeste 40 Oeste 0 876 -0.2 74
2019-01-31 06:00:00 7.6 14 Sudoeste 41 Oeste 0 876.1 -0.5 87
2019-01-31 05:00:00 7.6 19 Oeste 46 Oeste 0 876.2 -0.8 86
2019-01-31 04:00:00 7.3 16 Oeste 28 Sudoeste 0 876.2 -1.2 88
2019-01-31 03:00:00 6.9 15 Sudoeste 36 Oeste 0 876.6 -1 90
2019-01-31 02:00:00 6.6 18 Sudoeste 35 Sudoeste 0 877 -1 92
2019-01-31 01:00:00 6.6 14 Oeste 35 Oeste 0 877.4 -0.7 89
2019-01-31 00:00:00 6.4 17 Oeste 33 Sudoeste 0 877.6 -1 87
2019-01-30 23:00:00 6.1 15 Oeste 36 Oeste 0 878 -1.2 87
2019-01-30 22:00:00 5.8 21 Sudoeste 42 Oeste 0 878.1 -1.6 88
2019-01-30 21:00:00 4.6 8 Sur 18 Sudoeste 0 878.6 -1.5 90
2019-01-30 20:00:00 4.4 8 Sur 24 Sudoeste 0.2 879.2 -1.7 90
2019-01-30 19:00:00 5 15 Oeste 32 Sudoeste 0 879.7 -1.8 85
2019-01-30 18:00:00 5 13 Sudoeste 29 Sudoeste 0 880.1 -2.1 82
2019-01-30 17:00:00 4.8 12 Oeste 19 Oeste 0.8 880.9 -2.2 82
2019-01-30 16:00:00 4.7 8 Sudoeste 24 Sudoeste 0 881.5 -2.4 74
2019-01-30 15:00:00 6.2 13 Oeste 25 Sudoeste 0 882.2 -2.4 55
2019-01-30 14:00:00 5.8 13 Sudoeste 32 Sudoeste 0 883.1 -1.9 56
2019-01-30 13:00:00 6.1 13 Oeste 26 Oeste 0 883.9 -0.8 52
2019-01-30 12:00:00 3.9 17 Noroeste 31 Oeste 0 884.6 0.2 62
2019-01-30 11:00:00 2.5 18 Oeste 29 Oeste 0 885 0.9 72
2019-01-30 10:00:00 1.1 16 Oeste 31 Noroeste 0 884.7 0.8 79
2019-01-30 09:00:00 0.7 16 Noroeste 32 Noroeste 0 884.4 0.1 85
2019-01-30 08:00:00 0.6 14 Oeste 26 Oeste 0 884.1 -0.1 85
2019-01-30 07:00:00 0.7 14 Noroeste 27 Oeste 0 883.9 -0.8 83
2019-01-30 06:00:00 1 14 Noroeste 25 Noroeste 0 884.3 -0.4 84
2019-01-30 05:00:00 1.2 11 Noroeste 19 Oeste 0 884.2 -0.7 85
2019-01-30 04:00:00 1.5 9 Noroeste 26 Noroeste 0 884.7 -0.7 84
2019-01-30 03:00:00 1.7 13 Oeste 29 Noroeste 0 884.7 -0.5 83
2019-01-30 02:00:00 1.9 19 Noroeste 35 Noroeste 0 884.9 -0.3 82
2019-01-30 01:00:00 2.5 20 Oeste 37 Oeste 0 885.4 0.4 80
2019-01-30 00:00:00 2.4 10 Sudoeste 19 Sudoeste 0 885.2 0.4 80
2019-01-29 23:00:00 2.5 6 Sudoeste 30 Oeste 0 885.2 0.9 76
2019-01-29 22:00:00 3.2 19 Noroeste 41 Noroeste 0 885 1.2 78
2019-01-29 21:00:00 4.5 22 Noroeste 46 Noroeste 0 884.8 1.3 84
2019-01-29 20:00:00 5.7 26 Noroeste 54 Noroeste 0 884.3 0.7 87
2019-01-29 19:00:00 5.8 23 Noroeste 59 Oeste 0.2 883.8 0 89
2019-01-29 18:00:00 6.2 28 Oeste 56 Oeste 0.2 883.5 -0.8 86
2019-01-29 17:00:00 5.9 24 Oeste 50 Oeste 0 883.6 -0.7 89
2019-01-29 16:00:00 6.2 30 Oeste 53 Oeste 0 883.8 -1.2 83
2019-01-29 15:00:00 7 26 Oeste 59 Noroeste 0 884.3 -2.2 74
2019-01-29 14:00:00 7.8 35 Oeste 65 Oeste 0 884.3 -2.5 70
2019-01-29 13:00:00 6.7 30 Oeste 55 Oeste 0 885 -2.2 74
2019-01-29 12:00:00 5.9 25 Oeste 46 Noroeste 0 886.5 -1.2 80
2019-01-29 11:00:00 4.7 9 Oeste 23 Oeste 0 886.8 -0.9 84
2019-01-29 10:00:00 4.2 8 Sudoeste 26 Noroeste 0 887.2 -1.1 84
2019-01-29 09:00:00 3.5 16 Oeste 36 Oeste 0 887.7 -1 88
2019-01-29 08:00:00 2.7 14 Oeste 24 Oeste 0 887.7 -1.1 90
2019-01-29 07:00:00 2.1 8 Noroeste 22 Oeste 0 888.3 -0.8 89
2019-01-29 06:00:00 1.7 13 Oeste 21 Noroeste 0 888.7 -0.5 89
2019-01-29 05:00:00 1.6 13 Noroeste 27 Oeste 0 888.8 -0.6 86
2019-01-29 04:00:00 2 14 Oeste 30 Oeste 0 889.1 -0.9 85
2019-01-29 03:00:00 1.6 12 Noroeste 23 Noroeste 0 889.2 -0.4 86
2019-01-29 02:00:00 1.9 15 Noroeste 23 Noroeste 0 889.4 -0.4 86
2019-01-29 01:00:00 2.2 6 Oeste 15 Oeste 0 890 -0.2 88
2019-01-29 00:00:00 2.7 8 Oeste 23 Noroeste 0 889.6 -0.7 87
2019-01-28 23:00:00 3.5 12 Noroeste 28 Noroeste 0 889.8 -0.1 88
2019-01-28 22:00:00 4.5 19 Noroeste 36 Noroeste 0 890.2 0.5 86
2019-01-28 21:00:00 4.8 18 Noroeste 34 Noroeste 0 890.3 1 89
2019-01-28 20:00:00 5.1 15 Noroeste 35 Oeste 0 889.9 0.9 86
2019-01-28 19:00:00 5.8 17 Oeste 39 Oeste 0 889.7 0.6 81
2019-01-28 18:00:00 6.3 22 Oeste 41 Oeste 0 889.3 0.1 79
2019-01-28 17:00:00 6.7 27 Oeste 49 Noroeste 0 889 -0.3 78
2019-01-28 16:00:00 7.4 26 Noroeste 49 Oeste 0 889.1 -1.4 72
2019-01-28 15:00:00 7.1 26 Noroeste 44 Noroeste 0 889.2 -1.4 73
2019-01-28 14:00:00 6.8 19 Oeste 48 Oeste 0 889.3 -1.4 74
2019-01-28 13:00:00 6.1 26 Oeste 45 Noroeste 0 890.5 -0.1 75
2019-01-28 12:00:00 4.8 16 Oeste 36 Oeste 0 890.6 0.3 81
2019-01-28 11:00:00 3.5 19 Oeste 34 Oeste 0 890.7 0.7 87
2019-01-28 10:00:00 2.6 14 Oeste 32 Oeste 0 890.6 0.7 90
2019-01-28 09:00:00 2.3 17 Oeste 32 Sudoeste 0 890.3 -0.2 89
2019-01-28 08:00:00 1.6 16 Oeste 27 Oeste 0 890 -0.8 90
2019-01-28 07:00:00 1.1 14 Oeste 31 Oeste 0 889.9 -1.3 90
2019-01-28 06:00:00 0.7 17 Oeste 30 Oeste 0 890.5 0.1 88
2019-01-28 05:00:00 0.6 13 Oeste 25 Oeste 0 890.8 0 85
2019-01-28 04:00:00 0.1 12 Oeste 19 Oeste 0 891.2 0 83
2019-01-28 03:00:00 0.5 10 Oeste 21 Noroeste 0 890.4 -0.7 81
2019-01-28 02:00:00 0.9 12 Oeste 22 Oeste 0 890.8 0.2 81
2019-01-28 01:00:00 1.3 11 Oeste 25 Noroeste 0 891.2 0.5 83
2019-01-28 00:00:00 1.2 12 Oeste 22 Oeste 0 891.1 1.1 83
2019-01-27 23:00:00 1.6 10 Oeste 24 Oeste 0 890.6 0.9 86
2019-01-27 22:00:00 2.3 17 Oeste 30 Noroeste 0 890.7 1.6 82
2019-01-27 21:00:00 2.5 18 Oeste 28 Oeste 0 890 1.4 80
2019-01-27 20:00:00 3 18 Oeste 38 Noroeste 0 889.7 1.3 77
2019-01-27 19:00:00 3.7 18 Noroeste 35 Noroeste 0 889.1 0.7 72
2019-01-27 18:00:00 5.3 21 Noroeste 40 Oeste 0 888.6 0.3 60
2019-01-27 17:00:00 6.4 27 Noroeste 46 Noroeste 0 888.4 0 53
2019-01-27 16:00:00 6.7 29 Noroeste 52 Noroeste 0 888.4 -0.5 52
2019-01-27 15:00:00 6.3 27 Noroeste 46 Noroeste 0 888.3 -0.4 58
2019-01-27 14:00:00 5.9 24 Noroeste 46 Noroeste 0 888.4 0.3 60
2019-01-27 13:00:00 5.6 24 Noroeste 44 Noroeste 0 888.9 1.4 60
2019-01-27 12:00:00 4.4 30 Noroeste 45 Oeste 0 888.7 1.8 69
2019-01-27 11:00:00 2.7 29 Noroeste 42 Noroeste 0 888.1 1.7 81
2019-01-27 10:00:00 2.5 26 Noroeste 51 Oeste 0 887.5 0.8 84
2019-01-27 09:00:00 2.5 22 Noroeste 36 Oeste 0 886.9 0.3 85
2019-01-27 08:00:00 3.7 23 Noroeste 45 Oeste 0 886.4 -0.8 81
2019-01-27 07:00:00 4.5 20 Oeste 37 Noroeste 0 886.7 -1 78
2019-01-27 06:00:00 3.5 6 Oeste 14 Sudoeste 0 886.6 -0.9 72
2019-01-27 05:00:00 4.1 9 Oeste 23 Noroeste 0 887.2 -0.9 71
2019-01-27 04:00:00 5.2 14 Noroeste 32 Noroeste 0 887.7 -0.7 70
2019-01-27 03:00:00 5.1 12 Oeste 25 Oeste 0 887.5 -0.8 65
2019-01-27 02:00:00 5.6 12 Sur 28 Oeste 0 888.1 -0.5 62
2019-01-27 01:00:00 4.1 5 Oeste 15 Norte 0 888.4 -0.3 62
2019-01-27 00:00:00 3.3 5 Este 13 Este 0 888.3 -0.8 62
2019-01-26 23:00:00 5.2 7 Nordeste 17 Sur 0 888.6 -0.8 61
2019-01-26 22:00:00 6 9 Sur 14 Sur 0 888.7 -0.7 58
2019-01-26 21:00:00 6.3 10 Noroeste 14 Noroeste 0 889.1 -0.2 59
2019-01-26 20:00:00 6.4 6 Noroeste 10 Noroeste 0 889.4 -0.2 58
2019-01-26 19:00:00 8.9 2 Sur 17 Norte 0 889.4 -0.4 50
2019-01-26 18:00:00 11.6 10 Norte 18 Norte 0 889.3 -1 37
2019-01-26 17:00:00 13.6 13 Norte 21 Norte 0 889.6 -1.4 36
2019-01-26 16:00:00 14.7 10 Norte 17 Norte 0 889.8 -2.1 38
2019-01-26 15:00:00 14.9 6 Norte 14 Norte 0 890.3 -2.2 34
2019-01-26 14:00:00 12.9 2 Sur 9 Sur 0 891 -1.5 41
2019-01-26 13:00:00 9.4 5 Sudoeste 10 Sudoeste 0 891.9 -0.9 55
2019-01-26 12:00:00 6.5 5 Sur 9 Sur 0 892.5 -0.1 63
2019-01-26 11:00:00 3.4 5 Sur 7 Sur 0 892.5 0.1 75
2019-01-26 10:00:00 -0.4 4 Sur 8 Sur 0 892.8 0.5 93
2019-01-26 09:00:00 -1.8 4 Sudeste 5 Sur 0 892.6 0.1 95
2019-01-26 08:00:00 -1.7 2 Sudeste 5 Este 0 892.4 -0.1 94
2019-01-26 07:00:00 -1.3 2 Sudeste 8 Sur 0 892.3 -0.4 95
2019-01-26 06:00:00 -1.5 3 Sudoeste 6 Sur 0 892.5 -0.3 96
2019-01-26 05:00:00 -1.4 2 Este 9 Sur 0 892.5 -0.3 94
2019-01-26 04:00:00 -0.8 0 Calma 8 Sudoeste 0 892.7 -0.7 92
2019-01-26 03:00:00 -0.4 3 Sur 5 Sur 0 892.8 -0.5 93
2019-01-26 02:00:00 -0.2 4 Sur 8 Sur 0 892.8 -0.7 91
2019-01-26 01:00:00 0.6 5 Sur 11 Sudeste 0 893.4 0.1 92
2019-01-26 00:00:00 1.1 3 Sudoeste 12 Sur 0 893.3 0.1 90
2019-01-25 23:00:00 1.9 3 Sur 6 Sur 0 893.5 0.9 89
2019-01-25 22:00:00 3 5 Noroeste 8 Norte 0 893.3 1.1 86
2019-01-25 21:00:00 4.1 2 Norte 7 Norte 0 893.2 1.4 82
2019-01-25 20:00:00 5.3 5 Norte 13 Nordeste 0 892.6 1 78
2019-01-25 19:00:00 6.8 5 Nordeste 17 Norte 0 892.2 0.8 74
2019-01-25 18:00:00 8.4 11 Norte 25 Norte 0 891.8 0.4 67
2019-01-25 17:00:00 9.5 15 Norte 29 Norte 0 891.6 -0.2 61
2019-01-25 16:00:00 9.7 17 Norte 30 Noroeste 0 891.4 -0.7 60
2019-01-25 15:00:00 9.5 18 Noroeste 29 Noroeste 0 891.4 -1 64
2019-01-25 14:00:00 9.3 15 Norte 27 Nordeste 0 891.8 -0.3 65
2019-01-25 13:00:00 9.2 13 Norte 22 Norte 0 892.1 0.2 64
2019-01-25 12:00:00 8.5 9 Norte 19 Norte 0 892.4 0.9 66
2019-01-25 11:00:00 6.5 8 Noroeste 12 Noroeste 0 892.1 1.2 77
2019-01-25 10:00:00 3 3 Sudoeste 12 Noroeste 0 891.9 1.4 91
2019-01-25 09:00:00 1.9 8 Noroeste 11 Noroeste 0 891.5 1.4 93
2019-01-25 08:00:00 2.1 7 Noroeste 13 Noroeste 0 890.9 1.1 91
2019-01-25 07:00:00 3 9 Noroeste 24 Noroeste 0 890.5 0.9 89
2019-01-25 06:00:00 3.2 9 Norte 17 Noroeste 0 890.1 0.7 90
2019-01-25 05:00:00 3.4 9 Noroeste 24 Noroeste 0 889.8 0.5 91
2019-01-25 04:00:00 4.1 16 Noroeste 24 Noroeste 0 889.6 0.2 89
2019-01-25 03:00:00 4.5 13 Noroeste 23 Noroeste 0 889.4 0.4 89
2019-01-25 02:00:00 5.7 13 Noroeste 24 Noroeste 0 889.3 0.9 84
2019-01-25 01:00:00 6.2 13 Noroeste 26 Noroeste 0 889.4 1.3 83
2019-01-25 00:00:00 5.3 11 Noroeste 17 Noroeste 0 889 1.1 87
2019-01-24 23:00:00 5.2 8 Oeste 16 Oeste 0 888.4 1.4 87
2019-01-24 22:00:00 6.8 7 Oeste 13 Oeste 0 888.1 1.8 88
2019-01-24 21:00:00 7.4 4 Nordeste 17 Norte 0 887.9 2.5 86
2019-01-24 20:00:00 8.6 14 Norte 34 Noroeste 0 887 2.3 75
2019-01-24 19:00:00 9.8 21 Noroeste 38 Noroeste 0 886.3 1.8 69
2019-01-24 18:00:00 10.6 25 Noroeste 45 Norte 0 885.4 1 67
2019-01-24 17:00:00 11.3 23 Noroeste 48 Noroeste 0 884.7 0.4 66
2019-01-24 16:00:00 11.6 33 Noroeste 54 Noroeste 0 884.5 0.1 66
2019-01-24 15:00:00 11.3 36 Noroeste 58 Noroeste 0 884.4 0 68
2019-01-24 14:00:00 10.7 31 Noroeste 54 Noroeste 0 884.3 0 73
2019-01-24 13:00:00 9.8 29 Noroeste 54 Noroeste 0 884.4 0.4 77
2019-01-24 12:00:00 8.3 30 Noroeste 49 Noroeste 0 884.4 0.6 84
2019-01-24 11:00:00 6.1 25 Noroeste 42 Noroeste 0 884.3 0.5 93
2019-01-24 10:00:00 5.2 27 Noroeste 45 Noroeste 0 884 0.7 97
2019-01-24 09:00:00 4.8 27 Noroeste 50 Noroeste 0 883.8 0.4 97
2019-01-24 08:00:00 4.7 24 Noroeste 42 Noroeste 0 883.8 0.5 96
2019-01-24 07:00:00 4.7 25 Noroeste 41 Noroeste 0 883.3 -0.2 94
2019-01-24 06:00:00 4.6 26 Noroeste 45 Noroeste 0 883.4 -0.1 95
2019-01-24 05:00:00 4.9 27 Noroeste 49 Noroeste 0 883.3 -0.1 95
2019-01-24 04:00:00 4.7 24 Noroeste 42 Noroeste 0 883.5 0.1 95
2019-01-24 03:00:00 4.8 26 Noroeste 41 Noroeste 0 883.5 0.2 94
2019-01-24 02:00:00 5 24 Noroeste 45 Noroeste 0 883.4 0.5 94
2019-01-24 01:00:00 5.3 31 Noroeste 55 Noroeste 0 883.4 0.8 94
2019-01-24 00:00:00 5.6 34 Noroeste 55 Noroeste 0 883.3 0.6 93